sensor_id;sensor_type;location;lat;lon;timestamp;temperature;humidity
27016;DHT22;14557;0.000;0.000;2022-07-17T00:00:05;24.10;57.50
27016;DHT22;14557;0.000;0.000;2022-07-17T00:02:31;24.10;57.50
27016;DHT22;14557;0.000;0.000;2022-07-17T00:04:56;24.10;57.60
27016;DHT22;14557;0.000;0.000;2022-07-17T00:07:22;24.10;57.60
27016;DHT22;14557;0.000;0.000;2022-07-17T00:09:48;24.10;57.50
27016;DHT22;14557;0.000;0.000;2022-07-17T00:12:14;24.00;57.50
27016;DHT22;14557;0.000;0.000;2022-07-17T00:14:41;24.10;57.60
27016;DHT22;14557;0.000;0.000;2022-07-17T00:17:06;24.00;57.40
27016;DHT22;14557;0.000;0.000;2022-07-17T00:19:32;24.00;57.50
27016;DHT22;14557;0.000;0.000;2022-07-17T00:21:58;24.00;57.40
27016;DHT22;14557;0.000;0.000;2022-07-17T00:24:24;24.00;57.50
27016;DHT22;14557;0.000;0.000;2022-07-17T00:26:51;24.00;57.50
27016;DHT22;14557;0.000;0.000;2022-07-17T00:29:17;24.00;57.50
27016;DHT22;14557;0.000;0.000;2022-07-17T00:31:44;24.00;57.50
27016;DHT22;14557;0.000;0.000;2022-07-17T00:34:10;24.00;57.40
27016;DHT22;14557;0.000;0.000;2022-07-17T00:36:36;24.00;57.50
27016;DHT22;14557;0.000;0.000;2022-07-17T00:39:02;24.00;57.50
27016;DHT22;14557;0.000;0.000;2022-07-17T00:41:28;24.00;57.50
27016;DHT22;14557;0.000;0.000;2022-07-17T00:43:54;24.00;57.50
27016;DHT22;14557;0.000;0.000;2022-07-17T00:46:20;24.00;57.50
27016;DHT22;14557;0.000;0.000;2022-07-17T00:48:46;24.00;57.50
27016;DHT22;14557;0.000;0.000;2022-07-17T00:51:12;24.00;58.00
27016;DHT22;14557;0.000;0.000;2022-07-17T00:53:39;24.00;57.40
27016;DHT22;14557;0.000;0.000;2022-07-17T00:56:06;24.00;57.50
27016;DHT22;14557;0.000;0.000;2022-07-17T00:58:35;24.00;57.60
27016;DHT22;14557;0.000;0.000;2022-07-17T01:01:04;23.90;57.50
27016;DHT22;14557;0.000;0.000;2022-07-17T01:03:32;24.00;57.50
27016;DHT22;14557;0.000;0.000;2022-07-17T01:05:57;24.00;57.50
27016;DHT22;14557;0.000;0.000;2022-07-17T01:08:23;24.00;57.50
27016;DHT22;14557;0.000;0.000;2022-07-17T01:10:49;23.90;57.40
27016;DHT22;14557;0.000;0.000;2022-07-17T01:13:15;23.90;57.40
27016;DHT22;14557;0.000;0.000;2022-07-17T01:15:42;24.00;57.50
27016;DHT22;14557;0.000;0.000;2022-07-17T01:18:09;23.90;57.40
27016;DHT22;14557;0.000;0.000;2022-07-17T01:20:37;23.90;57.40
27016;DHT22;14557;0.000;0.000;2022-07-17T01:23:04;23.90;57.40
27016;DHT22;14557;0.000;0.000;2022-07-17T01:25:30;23.90;57.40
27016;DHT22;14557;0.000;0.000;2022-07-17T01:27:57;23.90;57.50
27016;DHT22;14557;0.000;0.000;2022-07-17T01:30:23;23.90;57.40
27016;DHT22;14557;0.000;0.000;2022-07-17T01:32:48;23.90;57.40
27016;DHT22;14557;0.000;0.000;2022-07-17T01:35:15;23.90;57.50
27016;DHT22;14557;0.000;0.000;2022-07-17T01:37:42;23.90;57.50
27016;DHT22;14557;0.000;0.000;2022-07-17T01:40:10;23.90;57.50
27016;DHT22;14557;0.000;0.000;2022-07-17T01:42:39;23.90;57.60
27016;DHT22;14557;0.000;0.000;2022-07-17T01:45:07;23.90;57.60
27016;DHT22;14557;0.000;0.000;2022-07-17T01:47:33;23.90;57.60
27016;DHT22;14557;0.000;0.000;2022-07-17T01:50:00;23.90;57.60
27016;DHT22;14557;0.000;0.000;2022-07-17T01:52:26;23.90;57.70
27016;DHT22;14557;0.000;0.000;2022-07-17T01:54:53;23.80;57.60
27016;DHT22;14557;0.000;0.000;2022-07-17T01:57:19;23.90;57.60
27016;DHT22;14557;0.000;0.000;2022-07-17T01:59:45;23.80;57.50
27016;DHT22;14557;0.000;0.000;2022-07-17T02:02:13;23.90;57.60
27016;DHT22;14557;0.000;0.000;2022-07-17T02:04:41;23.90;57.50
27016;DHT22;14557;0.000;0.000;2022-07-17T02:07:08;23.90;57.60
27016;DHT22;14557;0.000;0.000;2022-07-17T02:09:34;23.90;57.60
27016;DHT22;14557;0.000;0.000;2022-07-17T02:12:00;23.80;57.60
27016;DHT22;14557;0.000;0.000;2022-07-17T02:14:26;23.80;57.50
27016;DHT22;14557;0.000;0.000;2022-07-17T02:16:52;23.80;57.50
27016;DHT22;14557;0.000;0.000;2022-07-17T02:19:18;23.80;57.50
27016;DHT22;14557;0.000;0.000;2022-07-17T02:21:44;23.80;57.50
27016;DHT22;14557;0.000;0.000;2022-07-17T02:24:10;23.80;57.40
27016;DHT22;14557;0.000;0.000;2022-07-17T02:26:36;23.80;57.50
27016;DHT22;14557;0.000;0.000;2022-07-17T02:29:01;23.80;57.40
27016;DHT22;14557;0.000;0.000;2022-07-17T02:31:27;23.80;57.40
27016;DHT22;14557;0.000;0.000;2022-07-17T02:33:53;23.80;58.00
27016;DHT22;14557;0.000;0.000;2022-07-17T02:36:19;23.80;57.50
27016;DHT22;14557;0.000;0.000;2022-07-17T02:38:44;23.80;57.50
27016;DHT22;14557;0.000;0.000;2022-07-17T02:41:10;23.80;57.40
27016;DHT22;14557;0.000;0.000;2022-07-17T02:43:36;23.80;57.40
27016;DHT22;14557;0.000;0.000;2022-07-17T02:46:02;23.80;57.40
27016;DHT22;14557;0.000;0.000;2022-07-17T02:48:28;23.80;57.50
27016;DHT22;14557;0.000;0.000;2022-07-17T02:50:54;23.80;57.40
27016;DHT22;14557;0.000;0.000;2022-07-17T02:53:21;23.70;57.40
27016;DHT22;14557;0.000;0.000;2022-07-17T02:55:47;23.80;57.40
27016;DHT22;14557;0.000;0.000;2022-07-17T02:58:12;23.70;57.40
27016;DHT22;14557;0.000;0.000;2022-07-17T03:00:39;23.70;57.40
27016;DHT22;14557;0.000;0.000;2022-07-17T03:03:05;23.80;57.40
27016;DHT22;14557;0.000;0.000;2022-07-17T03:05:30;23.70;57.40
27016;DHT22;14557;0.000;0.000;2022-07-17T03:07:56;23.80;57.40
27016;DHT22;14557;0.000;0.000;2022-07-17T03:10:22;23.80;57.40
27016;DHT22;14557;0.000;0.000;2022-07-17T03:12:48;23.80;57.40
27016;DHT22;14557;0.000;0.000;2022-07-17T03:15:14;23.70;57.30
27016;DHT22;14557;0.000;0.000;2022-07-17T03:17:41;23.70;57.30
27016;DHT22;14557;0.000;0.000;2022-07-17T03:20:09;23.70;57.40
27016;DHT22;14557;0.000;0.000;2022-07-17T03:22:35;23.70;57.40
27016;DHT22;14557;0.000;0.000;2022-07-17T03:25:01;23.70;57.30
27016;DHT22;14557;0.000;0.000;2022-07-17T03:27:27;23.70;57.30
27016;DHT22;14557;0.000;0.000;2022-07-17T03:29:53;23.70;57.30
27016;DHT22;14557;0.000;0.000;2022-07-17T03:32:19;23.70;57.40
27016;DHT22;14557;0.000;0.000;2022-07-17T03:34:45;23.70;57.40
27016;DHT22;14557;0.000;0.000;2022-07-17T03:37:11;23.70;57.40
27016;DHT22;14557;0.000;0.000;2022-07-17T03:39:36;23.70;57.40
27016;DHT22;14557;0.000;0.000;2022-07-17T03:42:02;23.70;57.40
27016;DHT22;14557;0.000;0.000;2022-07-17T03:44:28;23.70;57.40
27016;DHT22;14557;0.000;0.000;2022-07-17T03:46:54;23.70;57.40
27016;DHT22;14557;0.000;0.000;2022-07-17T03:49:20;23.70;57.30
27016;DHT22;14557;0.000;0.000;2022-07-17T03:51:47;23.70;57.30
27016;DHT22;14557;0.000;0.000;2022-07-17T03:54:12;23.70;57.40
27016;DHT22;14557;0.000;0.000;2022-07-17T03:56:38;23.70;57.30
27016;DHT22;14557;0.000;0.000;2022-07-17T03:59:04;23.70;57.40
27016;DHT22;14557;0.000;0.000;2022-07-17T04:01:30;23.70;57.30
27016;DHT22;14557;0.000;0.000;2022-07-17T04:03:55;23.70;57.40
27016;DHT22;14557;0.000;0.000;2022-07-17T04:06:21;23.70;57.40
27016;DHT22;14557;0.000;0.000;2022-07-17T04:08:47;23.70;57.50
27016;DHT22;14557;0.000;0.000;2022-07-17T04:11:13;23.60;57.40
27016;DHT22;14557;0.000;0.000;2022-07-17T04:13:39;23.70;57.50
27016;DHT22;14557;0.000;0.000;2022-07-17T04:16:05;23.70;57.60
27016;DHT22;14557;0.000;0.000;2022-07-17T04:18:32;23.60;57.80
27016;DHT22;14557;0.000;0.000;2022-07-17T04:21:01;23.60;57.90
27016;DHT22;14557;0.000;0.000;2022-07-17T04:23:27;23.60;57.80
27016;DHT22;14557;0.000;0.000;2022-07-17T04:25:53;23.60;58.00
27016;DHT22;14557;0.000;0.000;2022-07-17T04:28:19;23.60;57.90
27016;DHT22;14557;0.000;0.000;2022-07-17T04:30:45;23.60;58.00
27016;DHT22;14557;0.000;0.000;2022-07-17T04:33:11;23.60;57.80
27016;DHT22;14557;0.000;0.000;2022-07-17T04:35:38;23.60;58.00
27016;DHT22;14557;0.000;0.000;2022-07-17T04:38:05;23.60;57.90
27016;DHT22;14557;0.000;0.000;2022-07-17T04:40:31;23.60;58.00
27016;DHT22;14557;0.000;0.000;2022-07-17T04:42:57;23.60;58.10
27016;DHT22;14557;0.000;0.000;2022-07-17T04:45:23;23.60;57.90
27016;DHT22;14557;0.000;0.000;2022-07-17T04:47:49;23.60;58.00
27016;DHT22;14557;0.000;0.000;2022-07-17T04:50:14;23.60;58.00
27016;DHT22;14557;0.000;0.000;2022-07-17T04:52:40;23.60;57.90
27016;DHT22;14557;0.000;0.000;2022-07-17T04:55:06;23.60;57.80
27016;DHT22;14557;0.000;0.000;2022-07-17T04:57:32;23.60;57.80
27016;DHT22;14557;0.000;0.000;2022-07-17T04:59:58;23.60;57.90
27016;DHT22;14557;0.000;0.000;2022-07-17T05:02:24;23.60;58.00
27016;DHT22;14557;0.000;0.000;2022-07-17T05:04:50;23.60;57.80
27016;DHT22;14557;0.000;0.000;2022-07-17T05:07:16;23.60;58.00
27016;DHT22;14557;0.000;0.000;2022-07-17T05:09:42;23.60;57.80
27016;DHT22;14557;0.000;0.000;2022-07-17T05:12:08;23.60;57.80
27016;DHT22;14557;0.000;0.000;2022-07-17T05:14:34;23.50;57.70
27016;DHT22;14557;0.000;0.000;2022-07-17T05:17:00;23.60;57.90
27016;DHT22;14557;0.000;0.000;2022-07-17T05:19:26;23.50;57.90
27016;DHT22;14557;0.000;0.000;2022-07-17T05:21:52;23.50;57.70
27016;DHT22;14557;0.000;0.000;2022-07-17T05:24:18;23.50;57.80
27016;DHT22;14557;0.000;0.000;2022-07-17T05:26:44;23.50;57.90
27016;DHT22;14557;0.000;0.000;2022-07-17T05:29:10;23.50;57.80
27016;DHT22;14557;0.000;0.000;2022-07-17T05:31:36;23.50;57.70
27016;DHT22;14557;0.000;0.000;2022-07-17T05:34:02;23.50;57.70
27016;DHT22;14557;0.000;0.000;2022-07-17T05:36:27;23.50;57.80
27016;DHT22;14557;0.000;0.000;2022-07-17T05:38:53;23.50;57.80
27016;DHT22;14557;0.000;0.000;2022-07-17T05:41:19;23.50;57.70
27016;DHT22;14557;0.000;0.000;2022-07-17T05:43:45;23.50;57.80
27016;DHT22;14557;0.000;0.000;2022-07-17T05:46:11;23.50;57.80
27016;DHT22;14557;0.000;0.000;2022-07-17T05:48:37;23.50;57.80
27016;DHT22;14557;0.000;0.000;2022-07-17T05:51:03;23.50;57.80
27016;DHT22;14557;0.000;0.000;2022-07-17T05:53:29;23.50;57.80
27016;DHT22;14557;0.000;0.000;2022-07-17T05:55:54;23.50;57.90
27016;DHT22;14557;0.000;0.000;2022-07-17T05:58:20;23.50;58.10
27016;DHT22;14557;0.000;0.000;2022-07-17T06:00:46;23.50;58.10
27016;DHT22;14557;0.000;0.000;2022-07-17T06:03:14;23.50;58.20
27016;DHT22;14557;0.000;0.000;2022-07-17T06:05:40;23.50;58.30
27016;DHT22;14557;0.000;0.000;2022-07-17T06:08:06;23.50;58.30
27016;DHT22;14557;0.000;0.000;2022-07-17T06:10:33;23.50;58.30
27016;DHT22;14557;0.000;0.000;2022-07-17T06:12:59;23.50;58.30
27016;DHT22;14557;0.000;0.000;2022-07-17T06:15:25;23.50;58.20
27016;DHT22;14557;0.000;0.000;2022-07-17T06:17:51;23.50;58.20
27016;DHT22;14557;0.000;0.000;2022-07-17T06:20:17;23.50;58.30
27016;DHT22;14557;0.000;0.000;2022-07-17T06:22:44;23.40;57.90
27016;DHT22;14557;0.000;0.000;2022-07-17T06:25:10;23.50;58.30
27016;DHT22;14557;0.000;0.000;2022-07-17T06:27:40;23.40;58.20
27016;DHT22;14557;0.000;0.000;2022-07-17T06:30:08;23.40;58.20
27016;DHT22;14557;0.000;0.000;2022-07-17T06:32:34;23.40;58.20
27016;DHT22;14557;0.000;0.000;2022-07-17T06:35:00;23.50;58.30
27016;DHT22;14557;0.000;0.000;2022-07-17T06:37:26;23.50;58.40
27016;DHT22;14557;0.000;0.000;2022-07-17T06:39:51;23.50;58.40
27016;DHT22;14557;0.000;0.000;2022-07-17T06:42:17;23.40;58.20
27016;DHT22;14557;0.000;0.000;2022-07-17T06:44:43;23.40;58.20
27016;DHT22;14557;0.000;0.000;2022-07-17T06:47:08;23.40;58.20
27016;DHT22;14557;0.000;0.000;2022-07-17T06:49:34;23.40;58.20
27016;DHT22;14557;0.000;0.000;2022-07-17T06:52:00;23.40;58.20
27016;DHT22;14557;0.000;0.000;2022-07-17T06:54:26;23.50;58.30
27016;DHT22;14557;0.000;0.000;2022-07-17T06:56:53;23.40;58.30
27016;DHT22;14557;0.000;0.000;2022-07-17T06:59:19;23.50;58.40
27016;DHT22;14557;0.000;0.000;2022-07-17T07:01:45;23.40;58.20
27016;DHT22;14557;0.000;0.000;2022-07-17T07:04:11;23.40;58.20
27016;DHT22;14557;0.000;0.000;2022-07-17T07:06:37;23.40;58.20
27016;DHT22;14557;0.000;0.000;2022-07-17T07:09:03;23.40;58.30
27016;DHT22;14557;0.000;0.000;2022-07-17T07:11:29;23.40;58.20
27016;DHT22;14557;0.000;0.000;2022-07-17T07:13:55;23.40;58.30
27016;DHT22;14557;0.000;0.000;2022-07-17T07:16:20;23.50;61.60
27016;DHT22;14557;0.000;0.000;2022-07-17T07:18:46;23.50;64.60
27016;DHT22;14557;0.000;0.000;2022-07-17T07:21:12;23.60;60.90
27016;DHT22;14557;0.000;0.000;2022-07-17T07:23:38;23.50;59.10
27016;DHT22;14557;0.000;0.000;2022-07-17T07:26:04;23.60;62.20
27016;DHT22;14557;0.000;0.000;2022-07-17T07:28:30;23.60;62.60
27016;DHT22;14557;0.000;0.000;2022-07-17T07:30:55;23.50;59.70
27016;DHT22;14557;0.000;0.000;2022-07-17T07:33:21;23.60;61.50
27016;DHT22;14557;0.000;0.000;2022-07-17T07:35:47;23.60;64.10
27016;DHT22;14557;0.000;0.000;2022-07-17T07:38:13;23.60;68.40
27016;DHT22;14557;0.000;0.000;2022-07-17T07:40:38;23.60;66.90
27016;DHT22;14557;0.000;0.000;2022-07-17T07:43:04;23.60;67.40
27016;DHT22;14557;0.000;0.000;2022-07-17T07:45:30;23.60;65.60
27016;DHT22;14557;0.000;0.000;2022-07-17T07:48:00;23.60;64.40
27016;DHT22;14557;0.000;0.000;2022-07-17T07:50:26;23.60;62.60
27016;DHT22;14557;0.000;0.000;2022-07-17T07:52:52;23.60;60.90
27016;DHT22;14557;0.000;0.000;2022-07-17T07:55:18;23.60;62.60
27016;DHT22;14557;0.000;0.000;2022-07-17T07:57:44;23.60;61.50
27016;DHT22;14557;0.000;0.000;2022-07-17T08:00:11;23.60;61.30
27016;DHT22;14557;0.000;0.000;2022-07-17T08:02:38;23.60;61.40
27016;DHT22;14557;0.000;0.000;2022-07-17T08:05:04;23.60;61.50
27016;DHT22;14557;0.000;0.000;2022-07-17T08:07:31;23.50;61.30
27016;DHT22;14557;0.000;0.000;2022-07-17T08:09:57;23.50;62.40
27016;DHT22;14557;0.000;0.000;2022-07-17T08:12:23;23.50;61.80
27016;DHT22;14557;0.000;0.000;2022-07-17T08:14:50;23.50;61.80
27016;DHT22;14557;0.000;0.000;2022-07-17T08:17:16;23.40;61.80
27016;DHT22;14557;0.000;0.000;2022-07-17T08:19:42;23.30;62.10
27016;DHT22;14557;0.000;0.000;2022-07-17T08:22:07;23.30;62.20
27016;DHT22;14557;0.000;0.000;2022-07-17T08:24:33;23.30;62.30
27016;DHT22;14557;0.000;0.000;2022-07-17T08:26:59;23.20;62.60
27016;DHT22;14557;0.000;0.000;2022-07-17T08:29:25;23.20;62.90
27016;DHT22;14557;0.000;0.000;2022-07-17T08:31:50;23.20;62.90
27016;DHT22;14557;0.000;0.000;2022-07-17T08:34:19;23.20;62.80
27016;DHT22;14557;0.000;0.000;2022-07-17T08:36:45;23.20;62.40
27016;DHT22;14557;0.000;0.000;2022-07-17T08:39:11;23.20;62.50
27016;DHT22;14557;0.000;0.000;2022-07-17T08:41:37;23.20;62.70
27016;DHT22;14557;0.000;0.000;2022-07-17T08:44:04;23.20;62.70
27016;DHT22;14557;0.000;0.000;2022-07-17T08:46:31;23.20;62.80
27016;DHT22;14557;0.000;0.000;2022-07-17T08:48:58;23.20;63.00
27016;DHT22;14557;0.000;0.000;2022-07-17T08:51:27;23.10;63.10
27016;DHT22;14557;0.000;0.000;2022-07-17T08:53:54;23.10;63.50
27016;DHT22;14557;0.000;0.000;2022-07-17T08:56:20;23.10;64.30
27016;DHT22;14557;0.000;0.000;2022-07-17T08:58:47;23.00;63.60
27016;DHT22;14557;0.000;0.000;2022-07-17T09:01:13;23.00;63.90
27016;DHT22;14557;0.000;0.000;2022-07-17T09:03:40;23.00;64.00
27016;DHT22;14557;0.000;0.000;2022-07-17T09:06:20;23.00;64.10
27016;DHT22;14557;0.000;0.000;2022-07-17T09:08:46;23.00;64.10
27016;DHT22;14557;0.000;0.000;2022-07-17T09:11:12;23.00;63.90
27016;DHT22;14557;0.000;0.000;2022-07-17T09:13:44;23.00;63.70
27016;DHT22;14557;0.000;0.000;2022-07-17T09:16:11;23.00;63.70
27016;DHT22;14557;0.000;0.000;2022-07-17T09:18:44;23.00;63.70
27016;DHT22;14557;0.000;0.000;2022-07-17T09:21:16;23.00;64.10
27016;DHT22;14557;0.000;0.000;2022-07-17T09:23:42;23.00;63.60
27016;DHT22;14557;0.000;0.000;2022-07-17T09:26:09;23.00;63.50
27016;DHT22;14557;0.000;0.000;2022-07-17T09:28:45;23.00;63.70
27016;DHT22;14557;0.000;0.000;2022-07-17T09:31:11;23.00;63.80
27016;DHT22;14557;0.000;0.000;2022-07-17T09:33:37;22.90;64.00
27016;DHT22;14557;0.000;0.000;2022-07-17T09:36:11;22.90;63.80
27016;DHT22;14557;0.000;0.000;2022-07-17T09:38:41;22.90;63.90
27016;DHT22;14557;0.000;0.000;2022-07-17T09:41:14;22.90;64.20
27016;DHT22;14557;0.000;0.000;2022-07-17T09:43:52;22.90;63.90
27016;DHT22;14557;0.000;0.000;2022-07-17T09:46:23;22.90;63.90
27016;DHT22;14557;0.000;0.000;2022-07-17T09:49:01;23.00;63.90
27016;DHT22;14557;0.000;0.000;2022-07-17T09:51:32;22.90;64.30
27016;DHT22;14557;0.000;0.000;2022-07-17T09:54:02;22.90;64.40
27016;DHT22;14557;0.000;0.000;2022-07-17T09:56:31;22.90;64.50
27016;DHT22;14557;0.000;0.000;2022-07-17T09:59:05;22.90;64.60
27016;DHT22;14557;0.000;0.000;2022-07-17T10:01:35;22.80;64.70
27016;DHT22;14557;0.000;0.000;2022-07-17T10:04:02;22.80;65.00
27016;DHT22;14557;0.000;0.000;2022-07-17T10:06:28;22.80;65.10
27016;DHT22;14557;0.000;0.000;2022-07-17T10:08:55;22.80;65.20
27016;DHT22;14557;0.000;0.000;2022-07-17T10:11:26;22.90;64.80
27016;DHT22;14557;0.000;0.000;2022-07-17T10:13:54;23.00;64.40
27016;DHT22;14557;0.000;0.000;2022-07-17T10:16:29;23.00;63.90
27016;DHT22;14557;0.000;0.000;2022-07-17T10:18:55;23.10;62.70
27016;DHT22;14557;0.000;0.000;2022-07-17T10:21:23;23.10;63.50
27016;DHT22;14557;0.000;0.000;2022-07-17T10:29:00;23.20;64.80
27016;DHT22;14557;0.000;0.000;2022-07-17T10:31:28;23.30;65.40
27016;DHT22;14557;0.000;0.000;2022-07-17T10:34:03;23.30;66.00
27016;DHT22;14557;0.000;0.000;2022-07-17T10:36:40;23.40;66.60
27016;DHT22;14557;0.000;0.000;2022-07-17T10:39:17;23.40;65.90
27016;DHT22;14557;0.000;0.000;2022-07-17T10:42:01;23.40;64.90
27016;DHT22;14557;0.000;0.000;2022-07-17T10:44:28;23.40;66.00
27016;DHT22;14557;0.000;0.000;2022-07-17T10:46:56;23.50;65.50
27016;DHT22;14557;0.000;0.000;2022-07-17T10:49:25;23.50;64.70
27016;DHT22;14557;0.000;0.000;2022-07-17T10:51:51;23.50;64.00
27016;DHT22;14557;0.000;0.000;2022-07-17T10:54:19;23.60;64.20
27016;DHT22;14557;0.000;0.000;2022-07-17T10:56:45;23.50;64.10
27016;DHT22;14557;0.000;0.000;2022-07-17T10:59:12;23.50;64.30
27016;DHT22;14557;0.000;0.000;2022-07-17T11:01:38;23.50;64.00
27016;DHT22;14557;0.000;0.000;2022-07-17T11:04:05;23.50;63.60
27016;DHT22;14557;0.000;0.000;2022-07-17T11:06:38;23.50;63.80
27016;DHT22;14557;0.000;0.000;2022-07-17T11:09:06;23.50;63.60
27016;DHT22;14557;0.000;0.000;2022-07-17T11:11:48;23.50;63.70
27016;DHT22;14557;0.000;0.000;2022-07-17T11:19:11;23.40;61.40
27016;DHT22;14557;0.000;0.000;2022-07-17T11:21:48;23.40;60.40
27016;DHT22;14557;0.000;0.000;2022-07-17T11:24:14;23.40;60.80
27016;DHT22;14557;0.000;0.000;2022-07-17T11:26:42;23.40;60.50
27016;DHT22;14557;0.000;0.000;2022-07-17T11:29:10;23.40;63.10
27016;DHT22;14557;0.000;0.000;2022-07-17T11:31:36;23.40;63.80
27016;DHT22;14557;0.000;0.000;2022-07-17T11:34:06;23.40;64.20
27016;DHT22;14557;0.000;0.000;2022-07-17T11:36:42;23.40;64.30
27016;DHT22;14557;0.000;0.000;2022-07-17T11:39:14;23.40;66.70
27016;DHT22;14557;0.000;0.000;2022-07-17T11:41:49;23.50;66.70
27016;DHT22;14557;0.000;0.000;2022-07-17T11:44:21;23.50;66.50
27016;DHT22;14557;0.000;0.000;2022-07-17T11:46:49;23.50;66.90
27016;DHT22;14557;0.000;0.000;2022-07-17T11:49:26;23.50;67.20
27016;DHT22;14557;0.000;0.000;2022-07-17T11:51:52;23.50;66.10
27016;DHT22;14557;0.000;0.000;2022-07-17T11:54:20;23.50;66.90
27016;DHT22;14557;0.000;0.000;2022-07-17T11:56:56;23.50;66.30
27016;DHT22;14557;0.000;0.000;2022-07-17T11:59:30;23.50;66.00
27016;DHT22;14557;0.000;0.000;2022-07-17T12:02:05;23.50;65.30
27016;DHT22;14557;0.000;0.000;2022-07-17T12:04:31;23.50;65.00
27016;DHT22;14557;0.000;0.000;2022-07-17T12:07:02;23.50;65.10
27016;DHT22;14557;0.000;0.000;2022-07-17T12:09:33;23.40;65.20
27016;DHT22;14557;0.000;0.000;2022-07-17T12:12:00;23.40;65.00
27016;DHT22;14557;0.000;0.000;2022-07-17T12:14:26;23.40;64.90
27016;DHT22;14557;0.000;0.000;2022-07-17T12:16:52;23.40;65.10
27016;DHT22;14557;0.000;0.000;2022-07-17T12:19:23;23.40;65.70
27016;DHT22;14557;0.000;0.000;2022-07-17T12:21:53;23.40;64.90
27016;DHT22;14557;0.000;0.000;2022-07-17T12:26:47;23.50;64.20
27016;DHT22;14557;0.000;0.000;2022-07-17T12:29:14;23.50;64.40
27016;DHT22;14557;0.000;0.000;2022-07-17T12:31:39;23.50;65.00
27016;DHT22;14557;0.000;0.000;2022-07-17T12:34:05;23.50;65.90
27016;DHT22;14557;0.000;0.000;2022-07-17T12:36:31;23.50;66.10
27016;DHT22;14557;0.000;0.000;2022-07-17T12:38:57;23.50;66.80
27016;DHT22;14557;0.000;0.000;2022-07-17T12:41:23;23.50;66.70
27016;DHT22;14557;0.000;0.000;2022-07-17T12:43:49;23.50;66.80
27016;DHT22;14557;0.000;0.000;2022-07-17T12:46:14;23.50;66.90
27016;DHT22;14557;0.000;0.000;2022-07-17T12:48:42;23.50;67.50
27016;DHT22;14557;0.000;0.000;2022-07-17T12:51:10;23.50;66.40
27016;DHT22;14557;0.000;0.000;2022-07-17T12:53:41;23.40;65.10
27016;DHT22;14557;0.000;0.000;2022-07-17T12:56:08;23.40;64.90
27016;DHT22;14557;0.000;0.000;2022-07-17T12:58:34;23.30;64.90
27016;DHT22;14557;0.000;0.000;2022-07-17T13:01:00;23.20;64.80
27016;DHT22;14557;0.000;0.000;2022-07-17T13:03:26;23.20;64.90
27016;DHT22;14557;0.000;0.000;2022-07-17T13:05:52;23.20;64.00
27016;DHT22;14557;0.000;0.000;2022-07-17T13:08:18;23.20;65.60
27016;DHT22;14557;0.000;0.000;2022-07-17T13:10:44;23.20;65.50
27016;DHT22;14557;0.000;0.000;2022-07-17T13:13:10;23.20;65.90
27016;DHT22;14557;0.000;0.000;2022-07-17T13:15:36;23.20;65.80
27016;DHT22;14557;0.000;0.000;2022-07-17T13:18:02;23.20;66.40
27016;DHT22;14557;0.000;0.000;2022-07-17T13:20:29;23.20;68.10
27016;DHT22;14557;0.000;0.000;2022-07-17T13:22:55;23.20;65.70
27016;DHT22;14557;0.000;0.000;2022-07-17T13:25:20;23.20;65.10
27016;DHT22;14557;0.000;0.000;2022-07-17T13:27:46;23.30;68.00
27016;DHT22;14557;0.000;0.000;2022-07-17T13:30:12;23.30;72.20
27016;DHT22;14557;0.000;0.000;2022-07-17T13:32:38;23.30;72.00
27016;DHT22;14557;0.000;0.000;2022-07-17T13:35:05;23.40;75.00
27016;DHT22;14557;0.000;0.000;2022-07-17T13:37:32;23.40;74.30
27016;DHT22;14557;0.000;0.000;2022-07-17T13:39:57;23.40;74.60
27016;DHT22;14557;0.000;0.000;2022-07-17T13:42:24;23.40;75.60
27016;DHT22;14557;0.000;0.000;2022-07-17T13:44:50;23.40;77.80
27016;DHT22;14557;0.000;0.000;2022-07-17T13:47:15;23.40;74.90
27016;DHT22;14557;0.000;0.000;2022-07-17T13:49:41;23.50;74.30
27016;DHT22;14557;0.000;0.000;2022-07-17T13:52:07;23.50;73.70
27016;DHT22;14557;0.000;0.000;2022-07-17T13:54:33;23.50;73.30
27016;DHT22;14557;0.000;0.000;2022-07-17T13:56:59;23.50;73.40
27016;DHT22;14557;0.000;0.000;2022-07-17T13:59:26;23.50;74.40
27016;DHT22;14557;0.000;0.000;2022-07-17T14:01:52;23.50;73.20
27016;DHT22;14557;0.000;0.000;2022-07-17T14:04:18;23.50;75.40
27016;DHT22;14557;0.000;0.000;2022-07-17T14:06:44;23.60;73.30
27016;DHT22;14557;0.000;0.000;2022-07-17T14:09:10;23.60;74.10
27016;DHT22;14557;0.000;0.000;2022-07-17T14:11:36;23.60;75.10
27016;DHT22;14557;0.000;0.000;2022-07-17T14:14:03;23.60;75.00
27016;DHT22;14557;0.000;0.000;2022-07-17T14:16:30;23.60;75.50
27016;DHT22;14557;0.000;0.000;2022-07-17T14:18:56;23.60;78.00
27016;DHT22;14557;0.000;0.000;2022-07-17T14:21:29;23.70;79.70
27016;DHT22;14557;0.000;0.000;2022-07-17T14:23:55;23.70;84.10
27016;DHT22;14557;0.000;0.000;2022-07-17T14:26:21;23.70;84.20
27016;DHT22;14557;0.000;0.000;2022-07-17T14:28:46;23.70;83.40
27016;DHT22;14557;0.000;0.000;2022-07-17T14:31:12;23.80;86.90
27016;DHT22;14557;0.000;0.000;2022-07-17T14:33:38;23.80;81.90
27016;DHT22;14557;0.000;0.000;2022-07-17T14:36:04;23.90;80.70
27016;DHT22;14557;0.000;0.000;2022-07-17T14:38:30;23.90;78.40
27016;DHT22;14557;0.000;0.000;2022-07-17T14:40:56;23.90;76.30
27016;DHT22;14557;0.000;0.000;2022-07-17T14:43:21;23.90;75.20
27016;DHT22;14557;0.000;0.000;2022-07-17T14:45:47;23.90;74.30
27016;DHT22;14557;0.000;0.000;2022-07-17T14:48:13;23.90;73.70
27016;DHT22;14557;0.000;0.000;2022-07-17T14:50:39;23.90;73.30
27016;DHT22;14557;0.000;0.000;2022-07-17T14:53:05;23.90;72.90
27016;DHT22;14557;0.000;0.000;2022-07-17T14:55:31;23.90;72.50
27016;DHT22;14557;0.000;0.000;2022-07-17T14:57:56;23.90;72.20
27016;DHT22;14557;0.000;0.000;2022-07-17T15:00:22;23.90;71.90
27016;DHT22;14557;0.000;0.000;2022-07-17T15:02:48;23.80;72.30
27016;DHT22;14557;0.000;0.000;2022-07-17T15:05:14;23.90;71.40
27016;DHT22;14557;0.000;0.000;2022-07-17T15:07:39;23.90;71.20
27016;DHT22;14557;0.000;0.000;2022-07-17T15:10:05;23.90;71.20
27016;DHT22;14557;0.000;0.000;2022-07-17T15:12:32;23.90;71.00
27016;DHT22;14557;0.000;0.000;2022-07-17T15:14:58;23.90;75.20
27016;DHT22;14557;0.000;0.000;2022-07-17T15:17:23;23.90;77.60
27016;DHT22;14557;0.000;0.000;2022-07-17T15:19:49;23.90;77.00
27016;DHT22;14557;0.000;0.000;2022-07-17T15:22:15;23.90;75.60
27016;DHT22;14557;0.000;0.000;2022-07-17T15:24:41;23.90;74.40
27016;DHT22;14557;0.000;0.000;2022-07-17T15:27:06;23.90;73.80
27016;DHT22;14557;0.000;0.000;2022-07-17T15:29:33;24.00;73.20
27016;DHT22;14557;0.000;0.000;2022-07-17T15:31:58;24.00;72.90
27016;DHT22;14557;0.000;0.000;2022-07-17T15:34:24;24.00;72.60
27016;DHT22;14557;0.000;0.000;2022-07-17T15:36:50;24.00;72.60
27016;DHT22;14557;0.000;0.000;2022-07-17T15:39:16;24.00;72.40
27016;DHT22;14557;0.000;0.000;2022-07-17T15:41:45;24.00;72.00
27016;DHT22;14557;0.000;0.000;2022-07-17T15:44:11;24.00;72.30
27016;DHT22;14557;0.000;0.000;2022-07-17T15:46:37;24.00;72.20
27016;DHT22;14557;0.000;0.000;2022-07-17T15:49:02;24.00;72.00
27016;DHT22;14557;0.000;0.000;2022-07-17T15:51:28;24.00;71.80
27016;DHT22;14557;0.000;0.000;2022-07-17T15:53:55;24.00;71.80